x

West Washington - 300nm West Of Aberdeen, Wa (46005) Wave Buoy

9:50am - Fri 27th Mar 2015 All times are UTC.

  • Sig Wave height 9.5ft
  • Swell Direction
  • Peak Period 11s
  • Average Period 8s
  • Wind
    16mph, 22mph gusts
  • Sea Temp 53°f
  • Air Temp 54°f
  • Sea Pressure 1013.2mb

More Historic Weather Station data

Upgrade to MSW Pro to gain access to the past 30 days of data for over 8000 Wavebouys and Weather Stations around the globe.

Join Pro

Comparision Forecast

View Surf forecast
   
Fri 03/27 9:50am 9.5ft 11s 8s 16 22 mph 1013.2mb 53f 54f
8:50am 9ft 11s 8s 20 25 mph 1013.5mb 53f 54f
7:50am 9.5ft 13s 8s 11 13 mph 1014.3mb 53f 54f
6:50am 9ft 12s 8s 9 11 mph 1015mb 53f 54f
5:50am 9ft 11s 8s 9 11 mph 1015.4mb 53f 54f
4:50am 10ft 13s 8s 11 13 mph 1015.4mb 53f 54f
3:50am 10ft 13s 8s 13 18 mph 1015.3mb 53f 54f
2:50am 10ft 11s 8s 16 20 mph 1015.2mb 53f 55f
1:50am 10.5ft 11s 8s 20 25 mph 1015.4mb 53f 55f
12:50am 9ft 11s 7s 22 27 mph 1015.3mb 53f 55f
Thu 03/26 11:50pm 9.5ft 12s 7s 20 27 mph 1015.5mb 53f 55f
10:50pm 9ft 11s 7s 22 27 mph 1015.8mb 53f 55f
9:50pm 9ft 11s 7s 22 27 mph 1016.1mb 53f 55f
8:50pm 9.5ft 11s 7s 22 27 mph 1017mb 53f 55f
7:50pm 10ft 11s 7s 20 22 mph 1017.1mb 53f 55f
6:50pm 10ft 11s 7s 20 25 mph 1017mb 53f 55f
5:50pm 10.5ft 11s 8s 20 25 mph 1017.1mb 53f 55f
4:50pm 9ft 11s 7s 20 27 mph 1016.7mb 53f 54f
3:50pm 9.5ft 12s 7s 18 20 mph 1016.6mb 53f 54f
2:50pm 9ft 11s 7s 18 22 mph 1016.7mb 53f 54f
1:50pm 8.5ft 10s 7s 18 22 mph 1016.6mb 53f 54f
12:50pm 9ft 11s 7s 18 20 mph 1017mb 53f 54f
11:50am 9.5ft 11s 7s 16 18 mph 1017.4mb 53f 55f
10:50am 9ft 11s 7s 16 20 mph 1017.9mb 53f 55f
9:50am 9.5ft 11s 7s 18 22 mph 1017.8mb 53f 55f
8:50am 11ft 11s 7s 18 22 mph 1017.5mb 53f 55f
7:50am 10.5ft 11s 7s 20 22 mph 1017.5mb 53f 55f
6:50am 10ft 11s 7s 20 25 mph 1017.5mb 53f 55f
5:50am 10.5ft 11s 7s 22 27 mph 1017.3mb 53f 55f
4:50am 10.5ft 11s 7s 22 27 mph 1017.1mb 53f 55f
3:50am 10ft 10s 7s 22 29 mph 1016.7mb 53f 55f
2:50am 10ft 11s 7s 22 27 mph 1016.4mb 53f 55f
1:50am 10ft 11s 7s 25 29 mph 1016.3mb 53f 55f
12:50am 10ft 11s 7s 20 27 mph 1016.7mb 53f 55f
Wed 03/25 11:50pm 9.5ft 11s 7s 20 27 mph 1016.7mb 53f 55f
10:50pm 10ft 11s 7s 20 22 mph 1017mb 53f 55f
9:50pm 9.5ft 11s 7s 22 27 mph 1017.1mb 53f 55f
8:50pm 9ft 11s 6s 22 27 mph 1017.1mb 53f 55f
7:50pm 10ft 11s 7s 22 27 mph 1017mb 53f 55f
6:50pm 10ft 11s 7s 22 27 mph 1016.4mb 53f 55f
5:50pm 11ft 10s 7s 20 25 mph 1016.1mb 53f 55f
4:50pm 11ft 11s 7s 22 27 mph 1015.5mb 53f 55f
3:50pm 11ft 10s 7s 18 22 mph 1015.3mb 53f 55f
2:50pm 10ft 11s 7s 20 22 mph 1014.9mb 53f 55f
1:50pm 10ft 10s 7s 20 25 mph 1014.4mb 53f 55f
12:50pm 10ft 11s 7s 20 22 mph 1014mb 53f 55f
11:50am 10ft 11s 7s 22 27 mph 1013.7mb 53f 55f
10:50am 10ft 11s 7s 22 27 mph 1013.5mb 53f 55f
9:50am 10ft 11s 7s 22 25 mph 1013.6mb 53f 55f
8:50am 9.5ft 10s 7s 25 29 mph 1013.1mb 53f 55f
7:50am 10ft 10s 6s 25 29 mph 1013mb 53f 55f
6:50am 10ft 8s 6s 25 31 mph 1012.8mb 53f 55f
5:50am 9ft 10s 6s 25 29 mph 1012.5mb 53f 55f
4:50am 9ft 11s 7s 25 29 mph 1012.3mb 53f 54f
3:50am 8ft 11s 7s 25 29 mph 1012.3mb 53f 54f
2:50am 8.5ft 11s 6s 25 29 mph 1012.2mb 53f 55f
1:50am 8ft 11s 6s 22 27 mph 1012.3mb 53f 54f
12:50am 8ft 11s 6s 25 29 mph 1012.7mb 53f 54f
Tue 03/24 11:50pm 8ft 10s 6s 25 29 mph 1012.8mb 53f 55f
10:50pm 7.5ft 11s 6s 25 29 mph 1013mb 53f 54f
9:50pm 8ft 11s 7s 22 27 mph 1014.1mb 53f 53f
8:50pm 8ft 11s 6s 20 25 mph 1014.8mb 53f 53f
7:50pm 9ft 10s 7s 20 25 mph 1015.1mb 53f 53f
6:50pm 9ft 11s 7s 20 25 mph 1014.9mb 53f 53f
5:50pm 9ft 10s 7s 25 29 mph 1014.9mb 53f 51f
4:50pm 8ft 11s 7s 25 29 mph 1015mb 53f 51f
3:50pm 8.5ft 11s 7s 22 27 mph 1015.6mb 53f 50f
2:50pm 9ft 11s 8s 22 25 mph 1015.6mb 53f 51f
1:50pm 8.5ft 12s 8s 18 22 mph 1016.1mb 53f 51f
12:50pm 9ft 11s 8s 18 20 mph 1016.4mb 53f 51f
11:50am 9ft 12s 9s 16 18 mph 1016.5mb 53f 51f
10:50am 9ft 11s 9s 13 16 mph 1016.9mb 53f 51f
9:50am 9ft 12s 9s 11 13 mph 1017.3mb 53f 51f
8:50am 9ft 11s 9s 11 13 mph 1017.1mb 53f 51f
7:50am 8.5ft 12s 9s 9 11 mph 1016.9mb 53f 51f
6:50am 9.5ft 12s 9s 4 7 mph 1016.6mb 53f 51f
5:50am 10ft 11s 9s 7 9 mph 1016.5mb 53f 51f
4:50am 10.5ft 11s 9s 4 9 mph 1016mb 53f 51f
3:50am 9.5ft 12s 9s 9 13 mph 1015.3mb 53f 51f
2:50am 10.5ft 11s 10s 11 16 mph 1014.7mb 53f 50f
1:50am 9ft 12s 9s 11 13 mph 1014.1mb 53f 51f
12:50am 8.5ft 12s 9s 9 11 mph 1013.7mb 53f 50f
Mon 03/23 11:50pm 9ft 12s 9s 7 9 mph 1013.1mb 53f 50f
10:50pm 8.5ft 11s 9s  -  2 mph 1012.7mb 53f 50f
9:50pm 8ft 13s 8s 9 11 mph 1012.7mb 53f 49f
8:50pm 8ft 12s 8s 13 20 mph 1012.5mb 53f 49f
7:50pm 8.5ft 12s 9s 2 4 mph 1012.5mb 53f 51f
6:50pm 9ft 12s 9s 4
mph
1012.4mb 53f 50f
5:50pm 8.5ft 13s 8s 4 7 mph 1012.2mb 53f 50f
4:50pm 8.5ft 13s 8s 4 7 mph 1012mb 53f 50f
3:50pm 9ft 11s 8s 9 11 mph 1012mb 53f 50f
2:50pm 9.5ft 13s 9s 9 13 mph 1011.9mb 53f 50f
1:50pm 9ft 12s 8s 11 13 mph 1011.6mb 53f 49f
12:50pm 9.5ft 13s 9s 11 13 mph 1011.6mb 53f 50f
11:50am 8.5ft 12s 8s 13 16 mph 1011.6mb 53f 50f
10:50am 10ft 12s 9s 16 20 mph 1011.5mb 53f 50f